sensor_id;sensor_type;location;lat;lon;timestamp;P1;durP1;ratioP1;P2;durP2;ratioP2
35907;SDS011;22003;50.320;8.054;2022-08-19T04:01:30;24.52;;;15.48;;
35907;SDS011;22003;50.320;8.054;2022-08-19T04:03:56;23.30;;;16.05;;
35907;SDS011;22003;50.320;8.054;2022-08-19T04:06:23;26.08;;;16.92;;
35907;SDS011;22003;50.320;8.054;2022-08-19T04:08:52;25.45;;;16.98;;
35907;SDS011;22003;50.320;8.054;2022-08-19T04:11:20;27.50;;;15.75;;
35907;SDS011;22003;50.320;8.054;2022-08-19T04:13:48;24.35;;;16.75;;
35907;SDS011;22003;50.320;8.054;2022-08-19T04:18:42;24.08;;;15.80;;
35907;SDS011;22003;50.320;8.054;2022-08-19T04:21:07;22.80;;;16.10;;
35907;SDS011;22003;50.320;8.054;2022-08-19T04:23:33;26.13;;;16.48;;
35907;SDS011;22003;50.320;8.054;2022-08-19T04:26:03;29.08;;;15.20;;
35907;SDS011;22003;50.320;8.054;2022-08-19T04:28:28;27.17;;;18.45;;
35907;SDS011;22003;50.320;8.054;2022-08-19T04:30:54;27.05;;;16.58;;
35907;SDS011;22003;50.320;8.054;2022-08-19T04:33:24;25.93;;;16.90;;
35907;SDS011;22003;50.320;8.054;2022-08-19T04:35:50;29.92;;;17.83;;
35907;SDS011;22003;50.320;8.054;2022-08-19T04:38:18;30.38;;;17.80;;
35907;SDS011;22003;50.320;8.054;2022-08-19T04:40:49;32.28;;;17.83;;
35907;SDS011;22003;50.320;8.054;2022-08-19T04:43:34;26.80;;;16.20;;
35907;SDS011;22003;50.320;8.054;2022-08-19T04:46:08;25.63;;;15.75;;
35907;SDS011;22003;50.320;8.054;2022-08-19T04:48:37;22.63;;;16.13;;
35907;SDS011;22003;50.320;8.054;2022-08-19T04:51:06;28.02;;;18.67;;
35907;SDS011;22003;50.320;8.054;2022-08-19T04:53:33;28.00;;;18.02;;
35907;SDS011;22003;50.320;8.054;2022-08-19T04:56:03;25.00;;;16.00;;
35907;SDS011;22003;50.320;8.054;2022-08-19T04:58:40;29.88;;;16.23;;
35907;SDS011;22003;50.320;8.054;2022-08-19T05:01:07;23.35;;;15.77;;
35907;SDS011;22003;50.320;8.054;2022-08-19T05:03:43;23.83;;;16.48;;
35907;SDS011;22003;50.320;8.054;2022-08-19T05:06:13;30.00;;;16.58;;
35907;SDS011;22003;50.320;8.054;2022-08-19T05:08:40;28.02;;;18.08;;
35907;SDS011;22003;50.320;8.054;2022-08-19T05:11:15;29.58;;;18.15;;
35907;SDS011;22003;50.320;8.054;2022-08-19T05:13:43;24.95;;;17.58;;
35907;SDS011;22003;50.320;8.054;2022-08-19T05:16:09;26.35;;;17.85;;
35907;SDS011;22003;50.320;8.054;2022-08-19T05:18:36;27.15;;;17.08;;
35907;SDS011;22003;50.320;8.054;2022-08-19T05:21:20;25.65;;;16.95;;
35907;SDS011;22003;50.320;8.054;2022-08-19T05:24:05;25.95;;;17.70;;
35907;SDS011;22003;50.320;8.054;2022-08-19T05:26:35;28.15;;;17.15;;
35907;SDS011;22003;50.320;8.054;2022-08-19T05:29:01;26.23;;;17.60;;
35907;SDS011;22003;50.320;8.054;2022-08-19T05:31:27;27.40;;;18.38;;
35907;SDS011;22003;50.320;8.054;2022-08-19T05:33:52;24.63;;;17.77;;
35907;SDS011;22003;50.320;8.054;2022-08-19T05:36:17;30.60;;;19.38;;
35907;SDS011;22003;50.320;8.054;2022-08-19T05:38:44;30.23;;;17.80;;
35907;SDS011;22003;50.320;8.054;2022-08-19T05:41:11;31.23;;;18.38;;
35907;SDS011;22003;50.320;8.054;2022-08-19T05:43:38;30.25;;;18.58;;
35907;SDS011;22003;50.320;8.054;2022-08-19T05:46:04;28.02;;;17.52;;
35907;SDS011;22003;50.320;8.054;2022-08-19T05:48:32;32.50;;;18.13;;
35907;SDS011;22003;50.320;8.054;2022-08-19T05:50:58;34.55;;;19.20;;
35907;SDS011;22003;50.320;8.054;2022-08-19T05:53:30;40.25;;;18.77;;
35907;SDS011;22003;50.320;8.054;2022-08-19T05:55:55;38.72;;;18.02;;
35907;SDS011;22003;50.320;8.054;2022-08-19T05:58:20;38.65;;;19.52;;
35907;SDS011;22003;50.320;8.054;2022-08-19T06:00:45;37.63;;;18.25;;
35907;SDS011;22003;50.320;8.054;2022-08-19T06:03:11;29.80;;;17.25;;
35907;SDS011;22003;50.320;8.054;2022-08-19T06:05:36;35.05;;;18.35;;
35907;SDS011;22003;50.320;8.054;2022-08-19T06:08:01;31.13;;;18.48;;
35907;SDS011;22003;50.320;8.054;2022-08-19T06:10:27;29.17;;;17.67;;
35907;SDS011;22003;50.320;8.054;2022-08-19T06:12:53;33.15;;;17.08;;
35907;SDS011;22003;50.320;8.054;2022-08-19T06:15:18;32.55;;;18.42;;
35907;SDS011;22003;50.320;8.054;2022-08-19T06:17:44;28.63;;;17.90;;
35907;SDS011;22003;50.320;8.054;2022-08-19T06:20:11;25.20;;;16.95;;
35907;SDS011;22003;50.320;8.054;2022-08-19T06:22:42;28.15;;;16.98;;
35907;SDS011;22003;50.320;8.054;2022-08-19T06:25:12;31.17;;;16.70;;
35907;SDS011;22003;50.320;8.054;2022-08-19T06:27:39;27.55;;;15.95;;
35907;SDS011;22003;50.320;8.054;2022-08-19T06:30:05;29.08;;;17.15;;
35907;SDS011;22003;50.320;8.054;2022-08-19T06:32:31;26.58;;;16.77;;
35907;SDS011;22003;50.320;8.054;2022-08-19T06:34:56;23.98;;;16.90;;
35907;SDS011;22003;50.320;8.054;2022-08-19T06:37:22;23.50;;;15.48;;
35907;SDS011;22003;50.320;8.054;2022-08-19T06:39:47;25.40;;;16.42;;
35907;SDS011;22003;50.320;8.054;2022-08-19T06:42:13;24.20;;;15.65;;
35907;SDS011;22003;50.320;8.054;2022-08-19T06:44:42;26.05;;;15.68;;
35907;SDS011;22003;50.320;8.054;2022-08-19T06:47:11;21.98;;;15.15;;
35907;SDS011;22003;50.320;8.054;2022-08-19T06:49:38;26.42;;;16.02;;
35907;SDS011;22003;50.320;8.054;2022-08-19T06:52:04;21.73;;;15.68;;
35907;SDS011;22003;50.320;8.054;2022-08-19T06:54:30;24.17;;;15.63;;
35907;SDS011;22003;50.320;8.054;2022-08-19T06:56:56;23.80;;;15.38;;
35907;SDS011;22003;50.320;8.054;2022-08-19T06:59:28;23.33;;;15.95;;
35907;SDS011;22003;50.320;8.054;2022-08-19T07:01:57;26.83;;;16.83;;
35907;SDS011;22003;50.320;8.054;2022-08-19T07:04:24;24.00;;;16.52;;
35907;SDS011;22003;50.320;8.054;2022-08-19T07:06:58;24.30;;;16.38;;
35907;SDS011;22003;50.320;8.054;2022-08-19T07:09:26;25.13;;;15.98;;
35907;SDS011;22003;50.320;8.054;2022-08-19T07:11:52;21.65;;;15.68;;
35907;SDS011;22003;50.320;8.054;2022-08-19T07:14:19;21.38;;;15.25;;
35907;SDS011;22003;50.320;8.054;2022-08-19T07:16:47;26.42;;;17.40;;
35907;SDS011;22003;50.320;8.054;2022-08-19T07:19:14;26.38;;;18.30;;
35907;SDS011;22003;50.320;8.054;2022-08-19T07:21:40;26.83;;;17.88;;
35907;SDS011;22003;50.320;8.054;2022-08-19T07:24:06;25.35;;;17.20;;
35907;SDS011;22003;50.320;8.054;2022-08-19T07:26:33;28.50;;;19.23;;
35907;SDS011;22003;50.320;8.054;2022-08-19T07:29:03;31.17;;;18.35;;
35907;SDS011;22003;50.320;8.054;2022-08-19T07:31:29;28.55;;;18.13;;
35907;SDS011;22003;50.320;8.054;2022-08-19T07:33:55;25.42;;;17.80;;
35907;SDS011;22003;50.320;8.054;2022-08-19T07:36:23;30.15;;;19.00;;
35907;SDS011;22003;50.320;8.054;2022-08-19T07:38:50;31.73;;;20.35;;
35907;SDS011;22003;50.320;8.054;2022-08-19T07:41:20;32.28;;;18.60;;
35907;SDS011;22003;50.320;8.054;2022-08-19T07:43:48;28.95;;;18.10;;
35907;SDS011;22003;50.320;8.054;2022-08-19T07:46:14;29.85;;;19.25;;
35907;SDS011;22003;50.320;8.054;2022-08-19T07:48:41;29.63;;;19.75;;
35907;SDS011;22003;50.320;8.054;2022-08-19T07:51:08;30.33;;;17.80;;
35907;SDS011;22003;50.320;8.054;2022-08-19T07:53:35;32.55;;;19.15;;
35907;SDS011;22003;50.320;8.054;2022-08-19T07:56:02;29.73;;;19.35;;
35907;SDS011;22003;50.320;8.054;2022-08-19T08:00:59;27.05;;;18.63;;
35907;SDS011;22003;50.320;8.054;2022-08-19T08:03:25;29.92;;;19.48;;
35907;SDS011;22003;50.320;8.054;2022-08-19T08:06:11;30.02;;;21.00;;
35907;SDS011;22003;50.320;8.054;2022-08-19T08:08:55;26.83;;;19.27;;
35907;SDS011;22003;50.320;8.054;2022-08-19T08:11:36;32.60;;;20.50;;
35907;SDS011;22003;50.320;8.054;2022-08-19T08:14:03;35.78;;;22.00;;
35907;SDS011;22003;50.320;8.054;2022-08-19T08:16:30;30.98;;;21.35;;
35907;SDS011;22003;50.320;8.054;2022-08-19T08:18:58;36.83;;;23.55;;
35907;SDS011;22003;50.320;8.054;2022-08-19T08:21:24;38.17;;;23.75;;
35907;SDS011;22003;50.320;8.054;2022-08-19T08:23:49;33.70;;;22.83;;
35907;SDS011;22003;50.320;8.054;2022-08-19T08:26:16;32.03;;;20.15;;
35907;SDS011;22003;50.320;8.054;2022-08-19T08:28:42;38.97;;;23.55;;
35907;SDS011;22003;50.320;8.054;2022-08-19T08:31:07;32.75;;;22.38;;
35907;SDS011;22003;50.320;8.054;2022-08-19T08:33:34;32.55;;;22.33;;
35907;SDS011;22003;50.320;8.054;2022-08-19T08:35:59;33.47;;;21.73;;
35907;SDS011;22003;50.320;8.054;2022-08-19T08:38:24;32.85;;;24.60;;
35907;SDS011;22003;50.320;8.054;2022-08-19T08:40:52;32.45;;;23.05;;
35907;SDS011;22003;50.320;8.054;2022-08-19T08:43:27;37.40;;;22.98;;
35907;SDS011;22003;50.320;8.054;2022-08-19T08:49:16;32.10;;;22.10;;
35907;SDS011;22003;50.320;8.054;2022-08-19T08:51:52;32.15;;;22.45;;
35907;SDS011;22003;50.320;8.054;2022-08-19T08:54:26;30.48;;;20.88;;
35907;SDS011;22003;50.320;8.054;2022-08-19T08:56:55;29.95;;;20.65;;
35907;SDS011;22003;50.320;8.054;2022-08-19T08:59:23;28.58;;;20.90;;
35907;SDS011;22003;50.320;8.054;2022-08-19T09:01:57;34.42;;;23.48;;
35907;SDS011;22003;50.320;8.054;2022-08-19T09:04:23;32.92;;;22.00;;
35907;SDS011;22003;50.320;8.054;2022-08-19T09:09:40;28.08;;;20.25;;
35907;SDS011;22003;50.320;8.054;2022-08-19T09:12:10;29.15;;;20.92;;
35907;SDS011;22003;50.320;8.054;2022-08-19T09:14:53;29.40;;;20.33;;
35907;SDS011;22003;50.320;8.054;2022-08-19T09:17:25;29.70;;;20.30;;
35907;SDS011;22003;50.320;8.054;2022-08-19T09:22:42;26.17;;;18.42;;
35907;SDS011;22003;50.320;8.054;2022-08-19T09:25:12;25.67;;;18.63;;
35907;SDS011;22003;50.320;8.054;2022-08-19T09:27:42;25.02;;;16.90;;
35907;SDS011;22003;50.320;8.054;2022-08-19T09:30:10;27.40;;;19.58;;
35907;SDS011;22003;50.320;8.054;2022-08-19T09:32:38;22.52;;;16.73;;
35907;SDS011;22003;50.320;8.054;2022-08-19T09:35:07;18.95;;;14.05;;
35907;SDS011;22003;50.320;8.054;2022-08-19T09:37:33;21.75;;;16.70;;
35907;SDS011;22003;50.320;8.054;2022-08-19T09:39:59;23.35;;;16.55;;
35907;SDS011;22003;50.320;8.054;2022-08-19T09:42:24;21.63;;;15.45;;
35907;SDS011;22003;50.320;8.054;2022-08-19T09:44:49;18.20;;;14.40;;
35907;SDS011;22003;50.320;8.054;2022-08-19T09:47:15;16.52;;;13.43;;
35907;SDS011;22003;50.320;8.054;2022-08-19T09:49:40;14.88;;;12.68;;
35907;SDS011;22003;50.320;8.054;2022-08-19T09:52:08;14.20;;;12.18;;
35907;SDS011;22003;50.320;8.054;2022-08-19T09:54:35;15.15;;;12.88;;
35907;SDS011;22003;50.320;8.054;2022-08-19T09:57:01;20.17;;;14.73;;
35907;SDS011;22003;50.320;8.054;2022-08-19T09:59:27;14.40;;;12.30;;
35907;SDS011;22003;50.320;8.054;2022-08-19T10:01:53;14.70;;;12.15;;
35907;SDS011;22003;50.320;8.054;2022-08-19T10:04:19;17.35;;;13.98;;
35907;SDS011;22003;50.320;8.054;2022-08-19T10:06:46;10.75;;;8.73;;
35907;SDS011;22003;50.320;8.054;2022-08-19T10:09:12;11.60;;;9.10;;
35907;SDS011;22003;50.320;8.054;2022-08-19T10:11:40;12.30;;;9.93;;
35907;SDS011;22003;50.320;8.054;2022-08-19T10:14:06;14.38;;;10.90;;
35907;SDS011;22003;50.320;8.054;2022-08-19T10:16:32;14.63;;;10.60;;
35907;SDS011;22003;50.320;8.054;2022-08-19T10:18:57;13.70;;;11.50;;
35907;SDS011;22003;50.320;8.054;2022-08-19T10:21:25;12.80;;;10.27;;
35907;SDS011;22003;50.320;8.054;2022-08-19T10:23:54;13.82;;;11.20;;
35907;SDS011;22003;50.320;8.054;2022-08-19T10:26:24;15.70;;;10.63;;
35907;SDS011;22003;50.320;8.054;2022-08-19T10:28:52;11.93;;;8.88;;
35907;SDS011;22003;50.320;8.054;2022-08-19T10:31:19;9.65;;;7.47;;
35907;SDS011;22003;50.320;8.054;2022-08-19T10:33:46;8.57;;;7.57;;
35907;SDS011;22003;50.320;8.054;2022-08-19T10:36:14;9.00;;;7.78;;
35907;SDS011;22003;50.320;8.054;2022-08-19T10:38:42;9.75;;;7.20;;
35907;SDS011;22003;50.320;8.054;2022-08-19T10:41:12;9.55;;;7.18;;
35907;SDS011;22003;50.320;8.054;2022-08-19T10:43:41;6.38;;;5.78;;
35907;SDS011;22003;50.320;8.054;2022-08-19T10:46:11;8.18;;;6.78;;
35907;SDS011;22003;50.320;8.054;2022-08-19T10:48:38;7.07;;;6.30;;
35907;SDS011;22003;50.320;8.054;2022-08-19T10:51:04;9.60;;;7.80;;
35907;SDS011;22003;50.320;8.054;2022-08-19T10:53:49;8.38;;;6.80;;
35907;SDS011;22003;50.320;8.054;2022-08-19T10:56:15;9.27;;;6.07;;
35907;SDS011;22003;50.320;8.054;2022-08-19T10:58:59;7.47;;;6.15;;
35907;SDS011;22003;50.320;8.054;2022-08-19T11:01:25;10.50;;;7.45;;
35907;SDS011;22003;50.320;8.054;2022-08-19T11:03:51;7.07;;;6.15;;
35907;SDS011;22003;50.320;8.054;2022-08-19T11:06:17;7.15;;;6.05;;
35907;SDS011;22003;50.320;8.054;2022-08-19T11:08:44;6.57;;;5.93;;
35907;SDS011;22003;50.320;8.054;2022-08-19T11:11:10;5.88;;;5.28;;
35907;SDS011;22003;50.320;8.054;2022-08-19T11:13:37;7.07;;;6.38;;
35907;SDS011;22003;50.320;8.054;2022-08-19T11:18:33;5.60;;;4.95;;
35907;SDS011;22003;50.320;8.054;2022-08-19T11:21:12;6.10;;;4.82;;
35907;SDS011;22003;50.320;8.054;2022-08-19T11:23:46;4.57;;;4.18;;
35907;SDS011;22003;50.320;8.054;2022-08-19T11:28:38;4.03;;;3.65;;
35907;SDS011;22003;50.320;8.054;2022-08-19T11:31:08;7.15;;;5.05;;
35907;SDS011;22003;50.320;8.054;2022-08-19T11:33:38;6.20;;;4.72;;
35907;SDS011;22003;50.320;8.054;2022-08-19T11:36:04;5.05;;;4.55;;
35907;SDS011;22003;50.320;8.054;2022-08-19T11:38:29;3.42;;;3.13;;
35907;SDS011;22003;50.320;8.054;2022-08-19T11:40:59;6.93;;;3.75;;
35907;SDS011;22003;50.320;8.054;2022-08-19T11:43:25;6.20;;;3.63;;
35907;SDS011;22003;50.320;8.054;2022-08-19T11:45:52;5.47;;;4.60;;
35907;SDS011;22003;50.320;8.054;2022-08-19T11:48:18;5.00;;;4.50;;
35907;SDS011;22003;50.320;8.054;2022-08-19T11:50:47;6.13;;;4.55;;
35907;SDS011;22003;50.320;8.054;2022-08-19T11:53:13;5.13;;;4.28;;
35907;SDS011;22003;50.320;8.054;2022-08-19T11:55:38;5.60;;;4.10;;
35907;SDS011;22003;50.320;8.054;2022-08-19T11:58:05;3.97;;;3.58;;
35907;SDS011;22003;50.320;8.054;2022-08-19T12:00:31;5.28;;;4.72;;
35907;SDS011;22003;50.320;8.054;2022-08-19T12:02:58;5.03;;;4.45;;
35907;SDS011;22003;50.320;8.054;2022-08-19T12:05:23;4.35;;;3.80;;
35907;SDS011;22003;50.320;8.054;2022-08-19T12:07:48;5.60;;;4.75;;
35907;SDS011;22003;50.320;8.054;2022-08-19T12:10:14;5.47;;;4.78;;
35907;SDS011;22003;50.320;8.054;2022-08-19T12:12:39;5.32;;;4.72;;
35907;SDS011;22003;50.320;8.054;2022-08-19T12:17:32;5.35;;;3.92;;
35907;SDS011;22003;50.320;8.054;2022-08-19T12:19:58;6.93;;;4.63;;
35907;SDS011;22003;50.320;8.054;2022-08-19T12:22:23;6.15;;;5.30;;
35907;SDS011;22003;50.320;8.054;2022-08-19T12:24:49;5.82;;;5.15;;
35907;SDS011;22003;50.320;8.054;2022-08-19T12:27:15;8.07;;;5.43;;
35907;SDS011;22003;50.320;8.054;2022-08-19T12:29:41;6.93;;;5.15;;
35907;SDS011;22003;50.320;8.054;2022-08-19T12:32:06;7.40;;;4.20;;
35907;SDS011;22003;50.320;8.054;2022-08-19T12:34:33;4.90;;;4.40;;
35907;SDS011;22003;50.320;8.054;2022-08-19T12:37:01;6.95;;;5.50;;
35907;SDS011;22003;50.320;8.054;2022-08-19T12:39:28;8.10;;;6.13;;
35907;SDS011;22003;50.320;8.054;2022-08-19T12:41:55;9.15;;;7.13;;
35907;SDS011;22003;50.320;8.054;2022-08-19T12:44:21;7.82;;;7.05;;
35907;SDS011;22003;50.320;8.054;2022-08-19T12:46:47;7.40;;;6.40;;
35907;SDS011;22003;50.320;8.054;2022-08-19T12:49:13;7.80;;;6.35;;
35907;SDS011;22003;50.320;8.054;2022-08-19T12:51:39;5.45;;;4.93;;
35907;SDS011;22003;50.320;8.054;2022-08-19T12:54:06;6.68;;;5.65;;
35907;SDS011;22003;50.320;8.054;2022-08-19T12:56:31;8.15;;;6.68;;
35907;SDS011;22003;50.320;8.054;2022-08-19T12:59:00;5.55;;;5.05;;
35907;SDS011;22003;50.320;8.054;2022-08-19T13:01:27;4.82;;;4.28;;
35907;SDS011;22003;50.320;8.054;2022-08-19T13:03:55;4.70;;;3.78;;
35907;SDS011;22003;50.320;8.054;2022-08-19T13:06:20;6.82;;;6.15;;
35907;SDS011;22003;50.320;8.054;2022-08-19T13:08:46;6.10;;;5.10;;
35907;SDS011;22003;50.320;8.054;2022-08-19T13:11:13;7.60;;;6.25;;
35907;SDS011;22003;50.320;8.054;2022-08-19T13:13:41;6.82;;;5.72;;
35907;SDS011;22003;50.320;8.054;2022-08-19T13:16:09;7.78;;;6.20;;
35907;SDS011;22003;50.320;8.054;2022-08-19T13:18:37;5.88;;;4.95;;
35907;SDS011;22003;50.320;8.054;2022-08-19T13:21:08;5.82;;;4.00;;
35907;SDS011;22003;50.320;8.054;2022-08-19T13:23:36;5.28;;;4.50;;
35907;SDS011;22003;50.320;8.054;2022-08-19T13:26:02;5.88;;;5.20;;
35907;SDS011;22003;50.320;8.054;2022-08-19T13:28:30;5.80;;;4.93;;
35907;SDS011;22003;50.320;8.054;2022-08-19T13:31:20;6.25;;;5.60;;
35907;SDS011;22003;50.320;8.054;2022-08-19T13:34:06;5.57;;;5.07;;
35907;SDS011;22003;50.320;8.054;2022-08-19T13:36:32;6.90;;;4.35;;
35907;SDS011;22003;50.320;8.054;2022-08-19T13:38:58;5.60;;;4.75;;
35907;SDS011;22003;50.320;8.054;2022-08-19T13:41:23;6.30;;;5.68;;
35907;SDS011;22003;50.320;8.054;2022-08-19T13:43:49;6.25;;;5.38;;
35907;SDS011;22003;50.320;8.054;2022-08-19T13:46:14;5.68;;;5.07;;
35907;SDS011;22003;50.320;8.054;2022-08-19T13:48:40;6.20;;;5.57;;
35907;SDS011;22003;50.320;8.054;2022-08-19T13:51:06;6.07;;;5.00;;
35907;SDS011;22003;50.320;8.054;2022-08-19T13:53:35;4.60;;;4.15;;
35907;SDS011;22003;50.320;8.054;2022-08-19T13:56:12;4.82;;;4.35;;
35907;SDS011;22003;50.320;8.054;2022-08-19T13:58:39;6.30;;;5.70;;
35907;SDS011;22003;50.320;8.054;2022-08-19T14:01:05;5.75;;;5.25;;
35907;SDS011;22003;50.320;8.054;2022-08-19T14:03:31;5.70;;;5.00;;
35907;SDS011;22003;50.320;8.054;2022-08-19T14:05:57;7.33;;;5.23;;
35907;SDS011;22003;50.320;8.054;2022-08-19T14:08:23;6.07;;;5.30;;
35907;SDS011;22003;50.320;8.054;2022-08-19T14:10:48;8.65;;;5.53;;
35907;SDS011;22003;50.320;8.054;2022-08-19T14:13:15;8.30;;;6.45;;
35907;SDS011;22003;50.320;8.054;2022-08-19T14:15:42;8.00;;;6.75;;
35907;SDS011;22003;50.320;8.054;2022-08-19T14:18:08;6.53;;;5.90;;
35907;SDS011;22003;50.320;8.054;2022-08-19T14:20:34;6.65;;;5.95;;
35907;SDS011;22003;50.320;8.054;2022-08-19T14:23:00;6.75;;;6.10;;
35907;SDS011;22003;50.320;8.054;2022-08-19T14:25:26;6.82;;;6.15;;
35907;SDS011;22003;50.320;8.054;2022-08-19T14:27:53;7.13;;;6.20;;
35907;SDS011;22003;50.320;8.054;2022-08-19T14:30:25;7.13;;;5.95;;
35907;SDS011;22003;50.320;8.054;2022-08-19T14:32:54;6.85;;;6.15;;
35907;SDS011;22003;50.320;8.054;2022-08-19T14:35:20;6.47;;;5.88;;
35907;SDS011;22003;50.320;8.054;2022-08-19T14:37:47;5.70;;;5.20;;
35907;SDS011;22003;50.320;8.054;2022-08-19T14:40:15;6.82;;;6.15;;
35907;SDS011;22003;50.320;8.054;2022-08-19T14:42:42;7.25;;;6.13;;
35907;SDS011;22003;50.320;8.054;2022-08-19T14:45:09;7.55;;;6.70;;
35907;SDS011;22003;50.320;8.054;2022-08-19T14:47:36;8.48;;;6.53;;
35907;SDS011;22003;50.320;8.054;2022-08-19T14:50:02;8.20;;;6.50;;
35907;SDS011;22003;50.320;8.054;2022-08-19T14:52:28;7.88;;;6.63;;
35907;SDS011;22003;50.320;8.054;2022-08-19T14:54:53;7.65;;;6.70;;
35907;SDS011;22003;50.320;8.054;2022-08-19T14:57:19;8.40;;;6.97;;
35907;SDS011;22003;50.320;8.054;2022-08-19T14:59:44;7.65;;;6.68;;
35907;SDS011;22003;50.320;8.054;2022-08-19T15:02:10;8.45;;;7.10;;
35907;SDS011;22003;50.320;8.054;2022-08-19T15:04:36;7.38;;;6.68;;
35907;SDS011;22003;50.320;8.054;2022-08-19T15:07:01;7.57;;;6.20;;
35907;SDS011;22003;50.320;8.054;2022-08-19T15:09:29;10.20;;;6.10;;
35907;SDS011;22003;50.320;8.054;2022-08-19T15:11:57;7.90;;;6.15;;
35907;SDS011;22003;50.320;8.054;2022-08-19T15:14:25;7.47;;;5.80;;
35907;SDS011;22003;50.320;8.054;2022-08-19T15:16:50;9.98;;;6.70;;
35907;SDS011;22003;50.320;8.054;2022-08-19T15:19:16;12.02;;;6.30;;
35907;SDS011;22003;50.320;8.054;2022-08-19T15:21:41;6.75;;;5.95;;
35907;SDS011;22003;50.320;8.054;2022-08-19T15:24:06;5.82;;;4.68;;
35907;SDS011;22003;50.320;8.054;2022-08-19T15:26:32;6.22;;;5.53;;
35907;SDS011;22003;50.320;8.054;2022-08-19T15:28:57;5.70;;;5.10;;
35907;SDS011;22003;50.320;8.054;2022-08-19T15:31:24;8.25;;;5.35;;
35907;SDS011;22003;50.320;8.054;2022-08-19T15:33:50;7.20;;;4.90;;
35907;SDS011;22003;50.320;8.054;2022-08-19T15:36:16;5.45;;;4.95;;
35907;SDS011;22003;50.320;8.054;2022-08-19T15:38:41;5.65;;;5.07;;
35907;SDS011;22003;50.320;8.054;2022-08-19T15:41:15;5.72;;;4.72;;
35907;SDS011;22003;50.320;8.054;2022-08-19T15:43:52;8.75;;;6.43;;
35907;SDS011;22003;50.320;8.054;2022-08-19T15:46:20;6.40;;;5.65;;
35907;SDS011;22003;50.320;8.054;2022-08-19T15:48:48;7.60;;;5.80;;
35907;SDS011;22003;50.320;8.054;2022-08-19T15:51:15;6.43;;;5.80;;
35907;SDS011;22003;50.320;8.054;2022-08-19T15:53:40;8.85;;;5.60;;
35907;SDS011;22003;50.320;8.054;2022-08-19T15:56:07;6.45;;;5.65;;
35907;SDS011;22003;50.320;8.054;2022-08-19T15:58:33;5.60;;;5.10;;
35907;SDS011;22003;50.320;8.054;2022-08-19T16:01:17;5.65;;;5.07;;
35907;SDS011;22003;50.320;8.054;2022-08-19T16:04:11;6.20;;;5.10;;
35907;SDS011;22003;50.320;8.054;2022-08-19T16:06:57;7.57;;;5.25;;
35907;SDS011;22003;50.320;8.054;2022-08-19T16:09:24;5.93;;;5.32;;
35907;SDS011;22003;50.320;8.054;2022-08-19T16:11:53;7.80;;;6.05;;
35907;SDS011;22003;50.320;8.054;2022-08-19T16:14:20;5.53;;;4.93;;
35907;SDS011;22003;50.320;8.054;2022-08-19T16:16:46;5.05;;;4.55;;
35907;SDS011;22003;50.320;8.054;2022-08-19T16:19:11;5.45;;;4.75;;
35907;SDS011;22003;50.320;8.054;2022-08-19T16:21:43;5.10;;;4.35;;
35907;SDS011;22003;50.320;8.054;2022-08-19T16:24:11;8.30;;;5.82;;
35907;SDS011;22003;50.320;8.054;2022-08-19T16:26:38;5.60;;;4.90;;
35907;SDS011;22003;50.320;8.054;2022-08-19T16:29:05;10.13;;;5.73;;
35907;SDS011;22003;50.320;8.054;2022-08-19T16:31:32;4.97;;;4.18;;
35907;SDS011;22003;50.320;8.054;2022-08-19T16:33:58;5.28;;;4.60;;
35907;SDS011;22003;50.320;8.054;2022-08-19T16:36:24;6.70;;;4.90;;
35907;SDS011;22003;50.320;8.054;2022-08-19T16:38:50;8.00;;;5.03;;
35907;SDS011;22003;50.320;8.054;2022-08-19T16:41:16;5.15;;;4.38;;
35907;SDS011;22003;50.320;8.054;2022-08-19T16:43:42;5.57;;;4.45;;
35907;SDS011;22003;50.320;8.054;2022-08-19T16:46:07;6.00;;;4.63;;
35907;SDS011;22003;50.320;8.054;2022-08-19T16:48:34;5.50;;;4.28;;
35907;SDS011;22003;50.320;8.054;2022-08-19T16:51:00;5.55;;;5.05;;
35907;SDS011;22003;50.320;8.054;2022-08-19T16:53:30;5.45;;;4.72;;
35907;SDS011;22003;50.320;8.054;2022-08-19T16:55:57;5.18;;;4.57;;
35907;SDS011;22003;50.320;8.054;2022-08-19T16:58:24;9.88;;;5.43;;
35907;SDS011;22003;50.320;8.054;2022-08-19T17:00:51;5.25;;;4.70;;
35907;SDS011;22003;50.320;8.054;2022-08-19T17:03:18;5.72;;;4.43;;
35907;SDS011;22003;50.320;8.054;2022-08-19T17:05:49;6.07;;;5.20;;
35907;SDS011;22003;50.320;8.054;2022-08-19T17:08:19;6.13;;;5.20;;
35907;SDS011;22003;50.320;8.054;2022-08-19T17:10:46;11.15;;;6.35;;
35907;SDS011;22003;50.320;8.054;2022-08-19T17:13:12;5.57;;;4.88;;
35907;SDS011;22003;50.320;8.054;2022-08-19T17:15:39;6.23;;;5.40;;
35907;SDS011;22003;50.320;8.054;2022-08-19T17:18:06;7.35;;;5.88;;
35907;SDS011;22003;50.320;8.054;2022-08-19T17:20:32;6.77;;;5.80;;
35907;SDS011;22003;50.320;8.054;2022-08-19T17:22:58;7.88;;;5.60;;
35907;SDS011;22003;50.320;8.054;2022-08-19T17:25:24;7.43;;;5.65;;
35907;SDS011;22003;50.320;8.054;2022-08-19T17:27:51;6.13;;;5.18;;
35907;SDS011;22003;50.320;8.054;2022-08-19T17:30:17;7.53;;;4.40;;
35907;SDS011;22003;50.320;8.054;2022-08-19T17:32:43;5.65;;;4.82;;
35907;SDS011;22003;50.320;8.054;2022-08-19T17:35:08;6.38;;;5.40;;
35907;SDS011;22003;50.320;8.054;2022-08-19T17:37:34;5.70;;;5.00;;
35907;SDS011;22003;50.320;8.054;2022-08-19T17:40:00;8.43;;;6.45;;
35907;SDS011;22003;50.320;8.054;2022-08-19T17:42:30;7.70;;;6.28;;
35907;SDS011;22003;50.320;8.054;2022-08-19T17:44:56;8.98;;;6.28;;
35907;SDS011;22003;50.320;8.054;2022-08-19T17:47:24;8.95;;;5.97;;
35907;SDS011;22003;50.320;8.054;2022-08-19T17:49:51;8.37;;;5.97;;
35907;SDS011;22003;50.320;8.054;2022-08-19T17:52:17;7.15;;;5.85;;
35907;SDS011;22003;50.320;8.054;2022-08-19T17:54:42;8.18;;;5.35;;
35907;SDS011;22003;50.320;8.054;2022-08-19T17:57:08;6.50;;;5.80;;
35907;SDS011;22003;50.320;8.054;2022-08-19T17:59:33;8.43;;;6.32;;
35907;SDS011;22003;50.320;8.054;2022-08-19T18:02:01;8.52;;;6.72;;
35907;SDS011;22003;50.320;8.054;2022-08-19T18:04:27;10.07;;;6.75;;
35907;SDS011;22003;50.320;8.054;2022-08-19T18:06:53;10.93;;;7.10;;
35907;SDS011;22003;50.320;8.054;2022-08-19T18:09:19;10.20;;;7.22;;
35907;SDS011;22003;50.320;8.054;2022-08-19T18:11:46;9.55;;;6.55;;
35907;SDS011;22003;50.320;8.054;2022-08-19T18:14:11;8.88;;;6.78;;
35907;SDS011;22003;50.320;8.054;2022-08-19T18:16:37;9.18;;;6.75;;
35907;SDS011;22003;50.320;8.054;2022-08-19T18:19:03;11.80;;;7.65;;
35907;SDS011;22003;50.320;8.054;2022-08-19T18:21:28;9.05;;;6.72;;
35907;SDS011;22003;50.320;8.054;2022-08-19T18:23:55;12.20;;;7.68;;
35907;SDS011;22003;50.320;8.054;2022-08-19T18:26:21;9.48;;;6.57;;
35907;SDS011;22003;50.320;8.054;2022-08-19T18:28:46;10.18;;;6.80;;
35907;SDS011;22003;50.320;8.054;2022-08-19T18:31:12;10.05;;;6.97;;
35907;SDS011;22003;50.320;8.054;2022-08-19T18:33:38;10.38;;;7.07;;
35907;SDS011;22003;50.320;8.054;2022-08-19T18:36:03;9.57;;;7.07;;
35907;SDS011;22003;50.320;8.054;2022-08-19T18:38:29;10.40;;;6.85;;
35907;SDS011;22003;50.320;8.054;2022-08-19T18:41:13;10.27;;;6.78;;
35907;SDS011;22003;50.320;8.054;2022-08-19T18:43:57;9.68;;;6.80;;
35907;SDS011;22003;50.320;8.054;2022-08-19T18:46:41;9.93;;;7.22;;
35907;SDS011;22003;50.320;8.054;2022-08-19T18:49:26;10.20;;;6.55;;
35907;SDS011;22003;50.320;8.054;2022-08-19T18:51:53;9.85;;;6.47;;
35907;SDS011;22003;50.320;8.054;2022-08-19T18:56:46;8.02;;;5.80;;
35907;SDS011;22003;50.320;8.054;2022-08-19T18:59:14;10.27;;;6.57;;
35907;SDS011;22003;50.320;8.054;2022-08-19T19:01:41;7.90;;;5.25;;
35907;SDS011;22003;50.320;8.054;2022-08-19T19:04:19;8.85;;;6.10;;